Time;durP1;ratioP1;P1;durP2;ratioP2;P2;SDS_P1;SDS_P2;PMS_P1;PMS_P2;Temp;Humidity;BMP_temperature;BMP_pressure;BME280_temperature;BME280_humidity;BME280_pressure;Samples;Min_cycle;Max_cycle;Signal;HPM_P1;HPM_P2
2022/03/22 00:01:37;;;;;;;45.75;21.60;;;;;;;6.33;73.85;103221.19;5073252;28;20057;-75
2022/03/22 00:04:06;;;;;;;43.92;20.17;;;;;;;6.32;73.58;103223.69;5067291;28;20467;-75
2022/03/22 00:06:34;;;;;;;44.17;20.75;;;;;;;6.29;73.56;103213.97;5069736;28;20056;-76
2022/03/22 00:09:02;;;;;;;43.92;19.27;;;;;;;6.27;73.87;103218.16;5075362;28;20224;-75
2022/03/22 00:11:33;;;;;;;42.45;19.83;;;;;;;6.21;74.58;103220.38;5076439;28;20097;-77
2022/03/22 00:14:01;;;;;;;44.80;20.05;;;;;;;6.18;73.77;103217.56;5071380;28;20044;-76
2022/03/22 00:16:29;;;;;;;41.30;20.65;;;;;;;6.12;74.93;103214.53;5065720;28;20180;-76
2022/03/22 00:19:19;;;;;;;40.58;20.15;;;;;;;6.08;75.14;103221.25;5072753;28;20135;-76
2022/03/22 00:21:50;;;;;;;42.60;18.55;;;;;;;6.05;74.21;103213.22;5072799;28;20044;-75
2022/03/22 00:24:18;;;;;;;41.92;18.80;;;;;;;6.04;74.61;103221.84;5075895;28;20052;-75
2022/03/22 00:26:47;;;;;;;45.90;20.55;;;;;;;6.07;74.83;103219.44;5074571;28;20040;-76
2022/03/22 00:29:15;;;;;;;41.08;20.98;;;;;;;6.06;74.84;103224.53;5071249;28;20106;-76
2022/03/22 00:31:43;;;;;;;42.17;19.85;;;;;;;6.04;75.12;103220.94;5072324;28;20056;-76
2022/03/22 00:34:13;;;;;;;39.45;19.70;;;;;;;6.00;74.96;103227.63;5064908;28;20488;-76
2022/03/22 00:36:41;;;;;;;42.45;20.65;;;;;;;5.95;75.28;103226.41;5073672;28;20048;-76
2022/03/22 00:39:10;;;;;;;45.33;20.00;;;;;;;5.89;75.23;103226.88;5073949;28;20126;-77
2022/03/22 00:41:38;;;;;;;43.78;20.83;;;;;;;5.83;75.44;103228.09;5072738;28;20053;-76
2022/03/22 00:44:08;;;;;;;38.45;18.70;;;;;;;5.78;75.43;103224.28;5076747;28;20079;-77
2022/03/22 00:46:38;;;;;;;38.33;19.42;;;;;;;5.74;75.98;103224.84;5070884;28;20123;-76
2022/03/22 00:49:07;;;;;;;45.28;21.70;;;;;;;5.70;76.76;103231.53;5068752;28;20059;-77
2022/03/22 00:51:35;;;;;;;44.00;21.40;;;;;;;5.67;77.07;103230.41;5081903;28;20040;-76
2022/03/22 00:54:04;;;;;;;40.08;19.92;;;;;;;5.62;76.88;103224.88;5077703;28;20059;-77
2022/03/22 00:56:32;;;;;;;41.40;19.13;;;;;;;5.57;76.90;103228.88;5064394;28;20040;-76
2022/03/22 01:01:48;;;;;;;41.88;20.02;;;;;;;5.46;76.68;103224.59;5077955;28;20086;-76
2022/03/22 01:04:17;;;;;;;45.63;20.13;;;;;;;5.42;77.01;103214.75;5078567;28;20036;-75
2022/03/22 01:06:48;;;;;;;41.35;20.25;;;;;;;5.40;76.79;103224.16;5077841;28;20048;-76
2022/03/22 01:09:15;;;;;;;46.45;20.15;;;;;;;5.38;77.28;103224.03;5055886;28;20039;-76
2022/03/22 01:11:43;;;;;;;41.25;19.95;;;;;;;5.36;76.96;103215.22;5072862;28;20564;-75
2022/03/22 01:14:13;;;;;;;46.75;20.58;;;;;;;5.35;77.34;103216.00;5074572;28;20040;-74
2022/03/22 01:16:41;;;;;;;47.35;20.05;;;;;;;5.38;77.61;103213.63;5073244;28;20081;-76
2022/03/22 01:19:10;;;;;;;48.67;21.55;;;;;;;5.42;77.71;103212.16;5077258;28;20257;-77
2022/03/22 01:21:39;;;;;;;42.65;21.17;;;;;;;5.43;78.96;103211.34;5073871;28;20084;-77
2022/03/22 01:24:07;;;;;;;46.33;21.00;;;;;;;5.40;78.43;103209.44;5076523;28;20521;-77
2022/03/22 01:26:36;;;;;;;47.25;21.90;;;;;;;5.38;77.69;103211.03;5061051;28;20105;-77
2022/03/22 01:29:04;;;;;;;44.95;20.95;;;;;;;5.40;79.03;103208.53;5077706;28;20060;-76
2022/03/22 01:31:32;;;;;;;45.25;22.63;;;;;;;5.36;79.11;103215.22;5072461;28;20060;-76
2022/03/22 01:34:00;;;;;;;45.35;22.17;;;;;;;5.33;78.88;103219.28;5077273;28;20684;-76
2022/03/22 01:36:31;;;;;;;44.40;23.38;;;;;;;5.30;79.50;103214.75;5076416;28;20040;-76
2022/03/22 01:39:00;;;;;;;45.53;20.70;;;;;;;5.29;79.68;103218.16;5075022;28;20044;-76
2022/03/22 01:41:29;;;;;;;42.45;20.67;;;;;;;5.24;78.66;103210.03;5073845;28;20085;-77
2022/03/22 01:43:57;;;;;;;46.15;20.83;;;;;;;5.24;78.90;103214.31;5071104;28;20057;-76
2022/03/22 01:46:25;;;;;;;43.28;21.38;;;;;;;5.24;79.20;103207.41;5070573;28;20500;-77
2022/03/22 01:48:54;;;;;;;43.45;19.95;;;;;;;5.25;79.20;103200.53;5072223;28;20040;-76
2022/03/22 01:51:23;;;;;;;40.17;22.15;;;;;;;5.27;79.51;103204.13;5075004;28;20052;-76
2022/03/22 01:53:52;;;;;;;46.75;21.08;;;;;;;5.27;79.24;103209.34;5078282;28;20045;-75
2022/03/22 01:56:20;;;;;;;50.90;22.67;;;;;;;5.29;80.23;103205.16;5075377;28;20052;-75
2022/03/22 01:58:48;;;;;;;49.22;22.40;;;;;;;5.31;80.50;103200.97;5070330;28;20131;-76
2022/03/22 02:06:51;;;;;;;43.17;20.02;;;;;;;5.34;79.63;103195.97;5078182;28;20036;-77
2022/03/22 02:09:21;;;;;;;46.83;21.77;;;;;;;5.37;80.43;103196.19;5073685;28;20052;-78
2022/03/22 02:11:49;;;;;;;49.78;22.05;;;;;;;5.39;79.96;103188.50;5074108;28;20048;-76
2022/03/22 02:14:18;;;;;;;52.72;25.98;;;;;;;5.44;80.84;103190.66;5071873;28;20040;-76
2022/03/22 02:16:46;;;;;;;46.95;21.40;;;;;;;5.46;80.11;103190.75;5074159;28;20048;-76
2022/03/22 02:19:16;;;;;;;49.92;22.30;;;;;;;5.47;80.60;103187.34;5076822;28;20170;-76
2022/03/22 02:21:44;;;;;;;52.25;21.92;;;;;;;5.46;80.76;103191.66;5077002;28;20036;-76
2022/03/22 02:24:14;;;;;;;54.13;24.33;;;;;;;5.44;80.91;103188.03;5072919;28;20062;-76
2022/03/22 02:26:42;;;;;;;58.90;25.10;;;;;;;5.43;81.11;103186.22;5075287;28;20048;-76
2022/03/22 02:29:10;;;;;;;55.17;24.95;;;;;;;5.40;81.03;103185.09;5078683;28;20127;-76
2022/03/22 02:31:38;;;;;;;47.35;22.63;;;;;;;5.41;81.38;103193.03;5066877;28;20053;-76
2022/03/22 02:34:06;;;;;;;49.58;23.20;;;;;;;5.36;80.81;103185.69;5074370;28;20113;-76
2022/03/22 02:36:34;;;;;;;52.95;24.85;;;;;;;5.34;81.33;103189.88;5073924;28;20056;-76
2022/03/22 02:39:02;;;;;;;48.83;20.90;;;;;;;5.30;80.52;103183.53;5071939;28;20064;-77
2022/03/22 02:41:32;;;;;;;43.95;21.85;;;;;;;5.29;80.54;103186.03;5073288;28;20075;-76
2022/03/22 02:44:00;;;;;;;41.95;20.20;;;;;;;5.27;81.25;103183.31;5064068;28;20052;-75
2022/03/22 02:46:27;;;;;;;49.20;22.63;;;;;;;5.25;80.76;103191.03;5073359;28;20051;-76
2022/03/22 02:48:55;;;;;;;50.60;23.60;;;;;;;5.24;80.32;103188.31;5074161;28;20043;-76
2022/03/22 02:51:24;;;;;;;48.47;23.17;;;;;;;5.24;80.48;103188.31;5067475;28;20039;-76
2022/03/22 02:53:51;;;;;;;52.17;23.40;;;;;;;5.21;80.97;103194.19;5072548;28;20044;-76
2022/03/22 02:56:21;;;;;;;46.92;21.98;;;;;;;5.21;80.99;103190.69;5076347;28;20476;-76
2022/03/22 02:58:52;;;;;;;49.13;22.98;;;;;;;5.19;81.55;103195.81;5078935;28;20059;-76
2022/03/22 03:01:21;;;;;;;50.35;24.83;;;;;;;5.19;81.88;103193.22;5075164;28;20063;-76
2022/03/22 03:03:49;;;;;;;55.47;23.80;;;;;;;5.20;81.41;103188.91;5069484;28;20115;-77
2022/03/22 03:06:17;;;;;;;49.08;22.50;;;;;;;5.21;81.54;103188.09;5069958;28;20534;-77
2022/03/22 03:08:45;;;;;;;56.60;25.70;;;;;;;5.24;81.78;103189.22;5074454;28;20048;-76
2022/03/22 03:11:13;;;;;;;49.17;22.08;;;;;;;5.25;81.67;103187.50;5069011;28;20088;-77
2022/03/22 03:16:28;;;;;;;61.00;26.77;;;;;;;5.31;82.24;103184.44;5071396;28;20349;-76
2022/03/22 03:18:56;;;;;;;50.28;23.48;;;;;;;5.31;82.05;103187.94;5075610;28;20047;-76
2022/03/22 03:21:24;;;;;;;53.08;23.88;;;;;;;5.32;82.43;103181.97;5069439;28;20105;-77
2022/03/22 03:23:52;;;;;;;56.75;25.65;;;;;;;5.37;82.59;103184.88;5075377;28;20598;-76
2022/03/22 03:26:20;;;;;;;55.38;24.58;;;;;;;5.40;83.00;103186.00;5077283;28;20124;-77
2022/03/22 03:28:48;;;;;;;55.10;23.75;;;;;;;5.39;82.10;103189.41;5069255;28;20464;-77
2022/03/22 03:31:16;;;;;;;65.88;26.15;;;;;;;5.41;83.02;103187.81;5077507;28;20085;-76
2022/03/22 03:33:46;;;;;;;65.30;26.15;;;;;;;5.42;83.12;103187.03;5074837;28;20075;-77
2022/03/22 03:36:14;;;;;;;52.95;26.08;;;;;;;5.45;82.35;103179.44;5072888;28;20060;-77
2022/03/22 03:38:42;;;;;;;60.90;25.83;;;;;;;5.46;83.17;103181.25;5073111;28;20071;-77
2022/03/22 03:43:58;;;;;;;56.63;26.00;;;;;;;5.47;82.88;103192.56;5076242;28;20295;-76
2022/03/22 03:49:15;;;;;;;85.45;30.58;;;;;;;5.62;83.55;103187.53;5069612;28;20048;-76
2022/03/22 03:51:44;;;;;;;68.35;31.00;;;;;;;5.66;83.46;103190.47;5070143;28;20119;-76
2022/03/22 03:54:13;;;;;;;69.13;29.30;;;;;;;5.67;83.34;103187.06;5069494;28;20044;-76
2022/03/22 03:56:41;;;;;;;70.70;29.70;;;;;;;5.69;83.27;103187.19;5075282;28;20055;-76
2022/03/22 03:59:09;;;;;;;67.07;29.35;;;;;;;5.71;83.46;103189.09;5073903;28;20123;-76
2022/03/22 04:01:40;;;;;;;76.55;31.85;;;;;;;5.73;82.87;103192.72;5075268;28;20044;-76
2022/03/22 04:04:08;;;;;;;70.50;31.25;;;;;;;5.74;83.63;103185.78;5071065;28;20049;-76
2022/03/22 04:06:37;;;;;;;76.18;30.15;;;;;;;5.75;83.35;103193.72;5073275;28;20452;-76
2022/03/22 04:09:06;;;;;;;75.10;30.10;;;;;;;5.75;83.52;103201.53;5060630;28;20496;-76
2022/03/22 04:11:33;;;;;;;70.93;31.00;;;;;;;5.74;83.89;103191.91;5071625;28;20052;-76
2022/03/22 04:14:02;;;;;;;84.60;34.20;;;;;;;5.76;84.21;103194.63;5069462;28;20044;-76
2022/03/22 04:16:29;;;;;;;73.60;31.15;;;;;;;5.75;83.45;103195.41;5066597;28;20044;-76
2022/03/22 04:18:59;;;;;;;82.45;32.42;;;;;;;5.74;83.24;103198.81;5063196;28;20047;-76
2022/03/22 04:21:28;;;;;;;80.95;33.88;;;;;;;5.75;83.20;103196.31;5075385;28;20045;-76
2022/03/22 04:23:58;;;;;;;75.00;29.67;;;;;;;5.76;84.05;103199.81;5072346;28;20059;-76
2022/03/22 04:26:26;;;;;;;80.03;33.50;;;;;;;5.77;84.04;103196.44;5075057;28;20058;-76
2022/03/22 04:34:26;;;;;;;72.80;31.02;;;;;;;5.71;83.46;103194.28;5075308;28;20045;-76
2022/03/22 04:36:56;;;;;;;81.05;34.30;;;;;;;5.74;84.40;103198.81;5075035;28;20071;-75
2022/03/22 04:39:28;;;;;;;91.38;33.70;;;;;;;5.74;84.15;103196.22;5079773;28;20044;-76
2022/03/22 04:41:56;;;;;;;80.65;34.17;;;;;;;5.78;84.55;103191.31;5078327;28;20079;-75
2022/03/22 04:44:26;;;;;;;88.88;35.13;;;;;;;5.78;84.27;103198.22;5078541;28;20155;-76
2022/03/22 04:46:58;;;;;;;88.30;35.92;;;;;;;5.80;84.57;103204.44;5074325;28;20051;-76
2022/03/22 04:49:28;;;;;;;91.38;35.13;;;;;;;5.80;84.48;103204.44;5078646;28;20090;-76
2022/03/22 04:57:27;;;;;;;86.55;35.22;;;;;;;5.82;84.41;103210.69;5043187;28;20170;-76
2022/03/22 04:59:55;;;;;;;94.60;38.58;;;;;;;5.83;84.71;103213.38;5075557;28;20060;-76
2022/03/22 05:02:23;;;;;;;86.05;36.17;;;;;;;5.83;84.68;103215.09;5075663;28;20048;-76
2022/03/22 05:04:51;;;;;;;92.38;36.63;;;;;;;5.79;84.37;103208.75;5076706;28;20139;-76
2022/03/22 05:07:20;;;;;;;98.47;36.75;;;;;;;5.79;84.61;103211.38;5055274;28;20059;-77
2022/03/22 05:09:49;;;;;;;93.40;38.05;;;;;;;5.80;85.10;103215.78;5076197;28;20177;-76
2022/03/22 05:12:18;;;;;;;92.13;37.75;;;;;;;5.81;84.99;103216.69;5076991;28;20677;-76
2022/03/22 05:14:50;;;;;;;99.75;38.72;;;;;;;5.79;85.08;103219.19;5080172;28;20048;-75
2022/03/22 05:17:21;;;;;;;90.32;35.08;;;;;;;5.75;85.12;103213.66;5073137;28;20062;-76
2022/03/22 05:19:52;;;;;;;84.40;34.55;;;;;;;5.71;84.61;103219.44;5073261;28;20052;-75
2022/03/22 05:22:21;;;;;;;83.13;34.15;;;;;;;5.68;84.83;103221.81;5075603;28;20055;-75
2022/03/22 05:24:55;;;;;;;81.68;34.58;;;;;;;5.65;85.47;103214.69;5078291;28;20048;-76
2022/03/22 05:27:25;;;;;;;99.97;37.85;;;;;;;5.61;85.15;103219.56;5076778;28;20052;-75
2022/03/22 05:29:53;;;;;;;94.57;38.05;;;;;;;5.57;85.74;103227.16;5072100;28;20175;-75
2022/03/22 05:32:21;;;;;;;82.38;32.83;;;;;;;5.52;85.21;103230.22;5080091;28;20105;-75
2022/03/22 05:34:49;;;;;;;83.22;34.80;;;;;;;5.48;85.22;103226.50;5074900;28;20055;-76
2022/03/22 05:37:17;;;;;;;90.50;32.95;;;;;;;5.46;85.44;103228.09;5072092;28;20055;-75
2022/03/22 05:39:46;;;;;;;89.88;36.45;;;;;;;5.42;85.22;103231.28;5073840;28;20055;-75
2022/03/22 05:42:15;;;;;;;83.97;34.33;;;;;;;5.41;84.94;103234.66;5077682;28;20043;-75
2022/03/22 05:44:44;;;;;;;98.82;36.85;;;;;;;5.37;85.75;103240.44;5073448;28;20533;-76
2022/03/22 05:47:12;;;;;;;84.78;34.58;;;;;;;5.35;85.83;103238.53;5073633;28;20071;-75
2022/03/22 05:49:41;;;;;;;91.60;35.92;;;;;;;5.35;86.48;103244.63;5077712;28;20501;-75
2022/03/22 05:52:11;;;;;;;81.53;33.75;;;;;;;5.35;85.92;103243.72;5077827;28;20186;-76
2022/03/22 05:54:39;;;;;;;92.18;38.10;;;;;;;5.34;86.20;103241.91;5072276;28;20040;-75
2022/03/22 05:57:07;;;;;;;89.50;36.42;;;;;;;5.35;86.06;103243.72;5072934;28;20513;-74
2022/03/22 05:59:36;;;;;;;85.07;35.58;;;;;;;5.33;86.76;103237.50;5075307;28;20460;-75
2022/03/22 06:02:05;;;;;;;82.78;35.25;;;;;;;5.31;86.34;103244.28;5075667;28;20052;-74
2022/03/22 06:04:33;;;;;;;96.50;36.25;;;;;;;5.29;86.70;103244.19;5072922;28;20494;-75
2022/03/22 06:07:01;;;;;;;84.10;34.55;;;;;;;5.27;86.10;103240.56;5073044;28;20036;-75
2022/03/22 06:09:29;;;;;;;87.72;36.00;;;;;;;5.25;86.45;103243.06;5061941;28;20336;-75
2022/03/22 06:11:57;;;;;;;98.60;38.40;;;;;;;5.26;86.36;103244.88;5077714;28;20162;-74
2022/03/22 06:14:25;;;;;;;93.50;38.05;;;;;;;5.27;86.12;103248.38;5079422;28;20151;-74
2022/03/22 06:16:54;;;;;;;95.03;38.67;;;;;;;5.29;86.24;103244.19;5074205;28;20065;-74
2022/03/22 06:19:22;;;;;;;77.70;34.80;;;;;;;5.31;86.48;103249.50;5075308;28;20064;-75
2022/03/22 06:21:51;;;;;;;96.75;40.20;;;;;;;5.33;87.32;103251.41;5072165;28;20094;-75
2022/03/22 06:24:19;;;;;;;93.38;39.03;;;;;;;5.37;86.75;103253.44;5071114;28;20060;-77
2022/03/22 06:26:47;;;;;;;96.38;38.50;;;;;;;5.43;87.40;103253.91;5076734;28;20520;-75
2022/03/22 06:29:15;;;;;;;97.20;37.75;;;;;;;5.48;87.44;103256.84;5076004;28;20047;-74
2022/03/22 06:31:44;;;;;;;82.53;37.40;;;;;;;5.50;87.30;103258.75;5072036;28;20081;-76
2022/03/22 06:34:13;;;;;;;100.75;38.65;;;;;;;5.62;87.53;103260.44;5076242;28;20052;-74
2022/03/22 06:36:41;;;;;;;101.07;39.50;;;;;;;5.70;87.46;103259.28;5073802;28;20447;-75
2022/03/22 06:39:09;;;;;;;104.00;37.92;;;;;;;5.75;87.33;103253.59;5074775;28;20065;-76
2022/03/22 06:41:37;;;;;;;105.53;39.17;;;;;;;5.85;87.15;103263.88;5073244;28;20120;-76
2022/03/22 06:44:05;;;;;;;98.70;37.35;;;;;;;5.94;87.02;103266.25;5068611;28;20621;-75
2022/03/22 06:46:33;;;;;;;102.95;40.72;;;;;;;5.96;86.59;103259.47;5063368;28;20056;-76
2022/03/22 06:49:01;;;;;;;96.53;37.90;;;;;;;6.00;86.86;103264.09;5070479;28;20279;-75
2022/03/22 06:51:30;;;;;;;109.25;37.67;;;;;;;6.11;86.85;103270.97;5065013;28;20072;-75
2022/03/22 06:53:58;;;;;;;112.53;41.50;;;;;;;6.16;86.71;103269.56;5068828;28;20075;-75
2022/03/22 06:56:26;;;;;;;104.10;38.47;;;;;;;6.23;86.31;103269.22;5077900;28;20064;-75
2022/03/22 06:58:57;;;;;;;98.78;39.35;;;;;;;6.30;86.01;103267.00;5075132;28;20102;-76
2022/03/22 07:01:27;;;;;;;103.65;37.60;;;;;;;6.37;86.08;103269.22;5073942;28;20160;-76
2022/03/22 07:03:55;;;;;;;101.68;39.00;;;;;;;6.41;85.83;103268.63;5077320;28;20056;-77
2022/03/22 07:06:23;;;;;;;100.20;38.17;;;;;;;6.47;85.86;103269.06;5073884;28;20571;-77
2022/03/22 07:08:52;;;;;;;98.43;40.30;;;;;;;6.58;85.65;103268.09;5074246;28;20611;-78
2022/03/22 07:14:06;;;;;;;109.80;40.08;;;;;;;6.75;84.92;103264.91;5072067;28;20120;-76
2022/03/22 07:16:36;;;;;;;105.28;41.15;;;;;;;6.84;84.82;103265.53;5067944;28;20102;-76
2022/03/22 07:19:05;;;;;;;101.63;40.47;;;;;;;6.92;84.88;103268.66;5076603;28;20056;-76
2022/03/22 07:21:33;;;;;;;102.72;39.13;;;;;;;7.04;84.76;103268.56;5079850;28;20082;-76
2022/03/22 07:24:06;;;;;;;98.38;39.22;;;;;;;7.21;84.37;103268.88;5070749;28;20156;-75
2022/03/22 07:26:35;;;;;;;113.43;40.10;;;;;;;7.41;83.51;103272.75;5075327;28;20051;-75
2022/03/22 07:29:06;;;;;;;107.68;40.60;;;;;;;7.60;82.92;103268.72;5074073;28;20077;-75
2022/03/22 07:31:37;;;;;;;99.00;41.83;;;;;;;7.77;82.54;103273.31;5077945;28;20044;-77
2022/03/22 07:34:06;;;;;;;105.57;39.05;;;;;;;7.96;81.84;103273.66;5070399;28;20131;-77
2022/03/22 07:36:36;;;;;;;94.53;38.70;;;;;;;8.14;81.37;103271.28;5076216;28;20049;-75
2022/03/22 07:39:20;;;;;;;101.85;40.08;;;;;;;8.36;80.25;103269.19;5067942;28;20074;-75
2022/03/22 07:41:49;;;;;;;98.45;39.17;;;;;;;8.56;79.95;103273.00;5065600;28;20048;-76
2022/03/22 07:44:18;;;;;;;97.10;40.97;;;;;;;8.79;79.20;103274.38;5072762;28;20043;-76
2022/03/22 07:46:47;;;;;;;98.85;40.28;;;;;;;8.98;78.83;103274.63;5063594;28;20040;-78
2022/03/22 07:54:48;;;;;;;84.82;39.30;;;;;;;9.62;76.66;103277.38;5071997;28;20500;-76
2022/03/22 07:57:19;;;;;;;95.68;38.80;;;;;;;9.78;76.01;103277.41;5074729;28;20504;-76
2022/03/22 07:59:47;;;;;;;92.00;36.72;;;;;;;9.95;74.95;103280.97;5074604;28;20050;-77
2022/03/22 08:02:15;;;;;;;92.40;38.38;;;;;;;10.14;74.23;103279.44;5076605;28;20046;-77
2022/03/22 08:04:43;;;;;;;90.95;37.78;;;;;;;10.32;73.23;103286.50;5072984;28;20040;-77
2022/03/22 08:07:11;;;;;;;87.15;38.10;;;;;;;10.53;74.03;103282.34;5075087;28;20040;-77
2022/03/22 08:09:39;;;;;;;79.20;34.90;;;;;;;10.69;72.76;103287.59;5068679;28;20120;-77
2022/03/22 08:12:10;;;;;;;80.78;35.40;;;;;;;10.85;71.32;103285.75;5074473;28;20080;-77
2022/03/22 08:14:38;;;;;;;78.40;37.50;;;;;;;11.01;71.17;103277.81;5076583;28;20059;-77
2022/03/22 08:17:06;;;;;;;70.22;33.63;;;;;;;11.19;71.24;103283.09;5073801;28;20046;-77
2022/03/22 08:19:34;;;;;;;74.65;34.38;;;;;;;11.44;70.51;103284.34;5074092;28;20048;-77
2022/03/22 08:22:02;;;;;;;81.13;34.00;;;;;;;11.56;69.52;103285.75;5072784;28;20064;-77
2022/03/22 08:24:30;;;;;;;72.93;33.83;;;;;;;11.79;70.64;103279.91;5049950;28;20044;-77
2022/03/22 08:26:58;;;;;;;77.47;35.72;;;;;;;11.82;68.02;103289.66;5054086;28;20048;-77
2022/03/22 08:29:29;;;;;;;75.65;34.95;;;;;;;11.99;67.98;103293.97;5074084;28;20060;-76
2022/03/22 08:31:57;;;;;;;65.20;32.90;;;;;;;12.11;66.82;103290.19;5067346;28;20188;-76
2022/03/22 08:34:26;;;;;;;61.10;30.33;;;;;;;12.24;64.95;103282.84;5068843;28;20113;-76
2022/03/22 08:36:54;;;;;;;63.22;31.60;;;;;;;12.28;63.49;103282.16;5072789;28;20047;-76
2022/03/22 08:39:22;;;;;;;63.00;29.65;;;;;;;12.49;62.98;103287.44;5073494;28;20174;-76
2022/03/22 08:41:52;;;;;;;68.93;30.52;;;;;;;12.60;62.64;103292.34;5074569;28;20039;-76
2022/03/22 08:44:21;;;;;;;66.40;28.45;;;;;;;12.75;61.94;103287.75;5064164;28;20080;-76
2022/03/22 08:46:51;;;;;;;54.03;27.73;;;;;;;12.97;60.98;103291.31;5069779;28;20139;-76
2022/03/22 08:49:19;;;;;;;57.60;27.92;;;;;;;13.14;61.43;103287.66;5073323;28;20133;-75
2022/03/22 08:51:49;;;;;;;59.33;27.80;;;;;;;13.24;59.82;103295.13;5075575;28;20481;-76
2022/03/22 08:54:19;;;;;;;54.38;27.13;;;;;;;13.44;60.21;103298.59;5067904;28;20047;-77
2022/03/22 08:56:47;;;;;;;55.35;28.75;;;;;;;13.45;58.65;103296.84;5066861;28;20465;-78
2022/03/22 08:59:15;;;;;;;52.35;26.10;;;;;;;13.62;59.13;103298.41;5066322;28;20086;-77
2022/03/22 09:01:44;;;;;;;53.95;27.13;;;;;;;13.72;58.50;103306.72;5071705;28;20508;-77
2022/03/22 09:06:59;;;;;;;53.08;27.00;;;;;;;14.11;57.85;103297.66;5073602;28;20052;-77
2022/03/22 09:09:29;;;;;;;53.05;26.90;;;;;;;14.14;55.98;103303.06;5074165;28;20133;-77
2022/03/22 09:11:57;;;;;;;53.88;24.13;;;;;;;14.44;56.15;103301.59;5075358;28;20173;-75
2022/03/22 09:14:25;;;;;;;51.15;24.75;;;;;;;14.54;54.97;103298.44;5069154;28;20035;-77
2022/03/22 09:16:53;;;;;;;49.47;25.27;;;;;;;14.63;55.02;103288.16;5079310;28;20048;-77
2022/03/22 09:19:22;;;;;;;46.42;24.48;;;;;;;14.61;53.76;103289.84;5075648;28;20573;-77
2022/03/22 09:21:50;;;;;;;43.40;24.13;;;;;;;14.92;54.25;103286.53;5071893;28;20136;-76
2022/03/22 09:24:18;;;;;;;51.40;23.52;;;;;;;15.03;53.93;103290.44;5073207;28;20172;-78
2022/03/22 09:26:46;;;;;;;42.50;24.02;;;;;;;15.09;53.19;103291.50;5075319;28;20482;-76
2022/03/22 09:29:14;;;;;;;48.28;24.13;;;;;;;15.33;53.75;103285.28;5077657;28;20223;-77
2022/03/22 09:31:42;;;;;;;48.05;24.88;;;;;;;15.18;52.61;103292.72;5080535;28;20048;-76
2022/03/22 09:34:13;;;;;;;47.45;23.15;;;;;;;15.37;52.52;103286.28;5073333;28;20137;-77
2022/03/22 09:36:42;;;;;;;51.72;26.25;;;;;;;15.66;52.06;103296.03;5076546;28;20163;-77
2022/03/22 09:39:10;;;;;;;48.63;24.55;;;;;;;15.63;51.41;103284.47;5075270;28;20101;-76
2022/03/22 09:41:39;;;;;;;43.75;23.35;;;;;;;15.99;51.44;103285.59;5076218;28;20048;-77
2022/03/22 09:44:09;;;;;;;46.70;24.38;;;;;;;16.00;51.19;103284.75;5074934;28;20119;-77
2022/03/22 09:46:38;;;;;;;49.25;24.42;;;;;;;16.30;50.99;103292.69;5078370;28;20093;-75
2022/03/22 09:49:09;;;;;;;44.10;22.83;;;;;;;16.34;49.19;103283.97;5069378;28;20434;-77
2022/03/22 09:51:48;;;;;;;43.38;25.08;;;;;;;16.38;49.51;103287.59;5076735;28;20039;-77
2022/03/22 09:54:18;;;;;;;38.78;22.67;;;;;;;16.64;49.19;103285.63;5076954;28;20086;-78
2022/03/22 09:56:47;;;;;;;42.22;23.20;;;;;;;16.55;49.21;103283.66;5080497;28;20126;-79
2022/03/22 09:59:17;;;;;;;41.40;23.05;;;;;;;16.68;49.76;103282.25;5073606;28;20119;-80
2022/03/22 10:01:46;;;;;;;43.22;24.05;;;;;;;16.70;48.96;103287.59;5077731;28;20536;-79
2022/03/22 10:04:17;;;;;;;43.60;23.70;;;;;;;16.64;47.75;103290.94;5075572;28;20059;-79
2022/03/22 10:06:54;;;;;;;51.97;24.42;;;;;;;16.95;47.38;103284.72;5067893;28;20136;-79
2022/03/22 10:09:29;;;;;;;40.67;21.10;;;;;;;17.11;48.43;103275.41;5076815;28;20127;-79
2022/03/22 10:11:57;;;;;;;40.63;21.58;;;;;;;17.06;47.96;103279.72;5073580;28;20132;-78
2022/03/22 10:14:33;;;;;;;41.97;21.02;;;;;;;17.09;47.28;103278.03;5079793;28;20048;-76
2022/03/22 10:17:12;;;;;;;38.55;21.40;;;;;;;17.30;47.09;103277.66;5074640;28;20056;-76
2022/03/22 10:19:44;;;;;;;39.28;22.92;;;;;;;17.35;47.18;103264.50;5072565;28;20565;-76
2022/03/22 10:22:14;;;;;;;38.80;21.75;;;;;;;17.32;45.74;103281.25;5066847;28;20055;-75
2022/03/22 10:24:44;;;;;;;42.40;24.17;;;;;;;17.46;47.23;103279.81;5072016;28;20044;-76
2022/03/22 10:27:22;;;;;;;44.53;24.58;;;;;;;17.51;48.12;103282.59;5073025;28;20040;-75
2022/03/22 10:29:50;;;;;;;42.30;22.15;;;;;;;17.70;47.23;103275.94;5074037;28;20044;-75
2022/03/22 10:32:19;;;;;;;44.80;22.42;;;;;;;17.71;46.68;103275.97;5075180;28;20054;-75
2022/03/22 10:34:47;;;;;;;40.13;23.25;;;;;;;17.71;46.18;103275.09;5062070;28;20037;-77
2022/03/22 10:37:25;;;;;;;41.97;22.65;;;;;;;17.80;46.78;103276.19;5072687;28;20528;-76
2022/03/22 10:39:53;;;;;;;40.67;24.25;;;;;;;17.83;46.64;103268.28;5078942;28;20123;-79
2022/03/22 10:42:24;;;;;;;40.55;22.50;;;;;;;17.88;46.08;103271.94;5072309;28;20677;-75
2022/03/22 10:44:59;;;;;;;41.20;23.55;;;;;;;18.17;46.34;103271.66;5056749;28;20146;-76
2022/03/22 10:47:28;;;;;;;39.47;20.92;;;;;;;18.12;43.15;103274.22;5076880;28;20062;-77
2022/03/22 10:50:05;;;;;;;37.35;20.92;;;;;;;17.82;44.09;103271.81;5078051;28;20084;-77
2022/03/22 10:52:36;;;;;;;38.15;20.88;;;;;;;18.21;45.19;103271.75;5074367;28;20082;-78
2022/03/22 10:55:05;;;;;;;41.45;22.67;;;;;;;18.19;45.26;103267.28;5078546;28;20062;-78
2022/03/22 10:57:37;;;;;;;38.58;20.70;;;;;;;18.13;44.51;103272.47;5071966;28;20047;-77
2022/03/22 11:00:08;;;;;;;41.58;22.55;;;;;;;18.08;43.48;103274.13;5074979;28;20052;-77
2022/03/22 11:02:38;;;;;;;36.25;19.83;;;;;;;18.27;42.99;103268.31;5074301;28;20131;-77
2022/03/22 11:05:07;;;;;;;36.25;20.25;;;;;;;18.46;42.68;103264.25;5074038;28;20187;-77
2022/03/22 11:07:38;;;;;;;37.17;20.98;;;;;;;18.61;42.43;103268.16;5076462;28;20807;-77
2022/03/22 11:10:09;;;;;;;38.10;20.48;;;;;;;18.65;42.11;103266.44;5071069;28;20090;-77
2022/03/22 11:12:38;;;;;;;36.33;19.33;;;;;;;18.85;42.13;103270.31;5074379;28;20505;-77
2022/03/22 11:15:08;;;;;;;36.88;21.20;;;;;;;18.79;43.07;103266.66;5073287;28;20473;-77
2022/03/22 11:17:37;;;;;;;36.85;20.00;;;;;;;18.81;42.50;103260.50;5072171;28;20123;-76
2022/03/22 11:20:10;;;;;;;40.17;20.77;;;;;;;18.79;41.14;103261.34;5078429;28;20048;-76
2022/03/22 11:22:46;;;;;;;39.38;19.33;;;;;;;18.80;41.92;103266.69;5076678;28;20040;-76
2022/03/22 11:25:18;;;;;;;40.55;19.75;;;;;;;18.92;42.17;103255.38;5075826;28;20048;-75
2022/03/22 11:28:05;;;;;;;40.30;19.60;;;;;;;18.88;41.80;103253.53;5073101;28;20071;-76
2022/03/22 11:30:34;;;;;;;38.90;19.83;;;;;;;18.83;41.86;103255.22;5074366;28;20052;-76
2022/03/22 11:35:53;;;;;;;38.17;20.38;;;;;;;19.26;42.31;103255.03;5071087;28;20070;-77
2022/03/22 11:38:43;;;;;;;36.13;20.55;;;;;;;19.56;41.91;103251.09;5074675;28;20063;-77
2022/03/22 11:44:11;;;;;;;38.78;20.17;;;;;;;19.73;41.85;103249.56;5074500;28;20051;-77
2022/03/22 11:46:39;;;;;;;34.92;19.15;;;;;;;19.69;40.47;103246.84;5067744;28;20044;-76
2022/03/22 11:49:20;;;;;;;35.58;18.75;;;;;;;19.72;40.00;103250.44;5070043;28;20312;-76
2022/03/22 11:51:56;;;;;;;33.42;18.38;;;;;;;19.47;40.76;103250.94;5075184;28;20090;-76
2022/03/22 11:54:27;;;;;;;39.72;20.88;;;;;;;19.46;41.69;103246.47;5074088;28;20048;-76
2022/03/22 11:57:00;;;;;;;32.63;19.17;;;;;;;19.84;40.13;103244.34;5075919;28;20144;-77
2022/03/22 11:59:41;;;;;;;34.22;20.55;;;;;;;19.80;40.88;103239.84;5074546;28;20048;-76
2022/03/22 12:02:15;;;;;;;37.03;20.20;;;;;;;20.07;40.33;103242.88;5077640;28;20044;-76
2022/03/22 12:04:44;;;;;;;35.38;19.25;;;;;;;20.01;39.40;103239.22;5078631;28;20059;-76
2022/03/22 12:07:13;;;;;;;32.15;18.60;;;;;;;20.09;38.88;103238.44;5074059;28;20131;-76
2022/03/22 12:09:43;;;;;;;38.47;18.83;;;;;;;20.17;38.31;103230.53;5064918;28;20043;-76